sensor_id;sensor_type;location;lat;lon;timestamp;pressure;altitude;pressure_sealevel;temperature;humidity
2178;BME280;1095;50.992;6.798;2023-02-02T00:02:02;101375.38;;;6.84;100.00
2178;BME280;1095;50.992;6.798;2023-02-02T00:04:30;101379.25;;;6.79;100.00
2178;BME280;1095;50.992;6.798;2023-02-02T00:07:00;101383.13;;;6.73;100.00
2178;BME280;1095;50.992;6.798;2023-02-02T00:09:30;101371.56;;;6.77;100.00
2178;BME280;1095;50.992;6.798;2023-02-02T00:12:00;101371.06;;;6.72;100.00
2178;BME280;1095;50.992;6.798;2023-02-02T00:15:03;101374.84;;;6.68;100.00
2178;BME280;1095;50.992;6.798;2023-02-02T00:17:32;101357.06;;;6.51;100.00
2178;BME280;1095;50.992;6.798;2023-02-02T00:20:08;101332.00;;;6.50;100.00
2178;BME280;1095;50.992;6.798;2023-02-02T00:22:37;101364.22;;;6.71;100.00
2178;BME280;1095;50.992;6.798;2023-02-02T00:25:31;101362.34;;;6.73;100.00
2178;BME280;1095;50.992;6.798;2023-02-02T00:28:30;101372.06;;;6.82;100.00
2178;BME280;1095;50.992;6.798;2023-02-02T00:31:04;101349.22;;;6.75;100.00
2178;BME280;1095;50.992;6.798;2023-02-02T00:33:38;101369.72;;;6.90;100.00
2178;BME280;1095;50.992;6.798;2023-02-02T00:36:23;101374.94;;;6.90;100.00
2178;BME280;1095;50.992;6.798;2023-02-02T00:42:36;101368.09;;;7.12;99.58
2178;BME280;1095;50.992;6.798;2023-02-02T00:52:03;101360.84;;;6.93;100.00
2178;BME280;1095;50.992;6.798;2023-02-02T00:58:27;101325.91;;;6.73;100.00
2178;BME280;1095;50.992;6.798;2023-02-02T01:01:25;101320.00;;;6.71;100.00
2178;BME280;1095;50.992;6.798;2023-02-02T01:04:30;101327.09;;;6.69;100.00
2178;BME280;1095;50.992;6.798;2023-02-02T01:14:02;101357.78;;;6.88;100.00
2178;BME280;1095;50.992;6.798;2023-02-02T01:36:10;101388.97;;;6.53;100.00
2178;BME280;1095;50.992;6.798;2023-02-02T01:38:37;101393.25;;;6.54;100.00
2178;BME280;1095;50.992;6.798;2023-02-02T01:41:04;101382.13;;;6.52;100.00
2178;BME280;1095;50.992;6.798;2023-02-02T01:43:50;101399.81;;;6.47;100.00
2178;BME280;1095;50.992;6.798;2023-02-02T01:46:20;101398.06;;;6.47;100.00
2178;BME280;1095;50.992;6.798;2023-02-02T01:48:50;101411.78;;;6.49;100.00
2178;BME280;1095;50.992;6.798;2023-02-02T01:51:21;101401.97;;;6.53;100.00
2178;BME280;1095;50.992;6.798;2023-02-02T01:53:51;101409.81;;;6.64;100.00
2178;BME280;1095;50.992;6.798;2023-02-02T01:56:23;101409.88;;;6.75;100.00
2178;BME280;1095;50.992;6.798;2023-02-02T01:58:51;101418.00;;;6.71;100.00
2178;BME280;1095;50.992;6.798;2023-02-02T02:01:18;101406.72;;;6.83;100.00
2178;BME280;1095;50.992;6.798;2023-02-02T02:03:45;101419.38;;;6.87;100.00
2178;BME280;1095;50.992;6.798;2023-02-02T02:06:16;101408.13;;;6.87;100.00
2178;BME280;1095;50.992;6.798;2023-02-02T02:08:47;101399.72;;;6.83;100.00
2178;BME280;1095;50.992;6.798;2023-02-02T02:11:16;101413.00;;;6.91;100.00
2178;BME280;1095;50.992;6.798;2023-02-02T02:13:43;101418.09;;;6.93;100.00
2178;BME280;1095;50.992;6.798;2023-02-02T02:16:35;101406.81;;;6.81;100.00
2178;BME280;1095;50.992;6.798;2023-02-02T02:19:19;101402.06;;;6.75;100.00
2178;BME280;1095;50.992;6.798;2023-02-02T02:21:55;101404.16;;;6.70;100.00
2178;BME280;1095;50.992;6.798;2023-02-02T02:28:28;101401.47;;;6.72;100.00
2178;BME280;1095;50.992;6.798;2023-02-02T02:31:20;101389.28;;;6.72;100.00
2178;BME280;1095;50.992;6.798;2023-02-02T02:33:56;101390.72;;;6.76;100.00
2178;BME280;1095;50.992;6.798;2023-02-02T02:36:32;101394.53;;;6.83;100.00
2178;BME280;1095;50.992;6.798;2023-02-02T02:39:05;101384.34;;;6.80;100.00
2178;BME280;1095;50.992;6.798;2023-02-02T02:41:40;101398.78;;;6.84;100.00
2178;BME280;1095;50.992;6.798;2023-02-02T02:44:11;101394.03;;;6.78;100.00
2178;BME280;1095;50.992;6.798;2023-02-02T02:46:39;101387.56;;;6.84;100.00
2178;BME280;1095;50.992;6.798;2023-02-02T02:49:09;101390.16;;;6.84;100.00
2178;BME280;1095;50.992;6.798;2023-02-02T02:51:47;101393.25;;;6.89;100.00
2178;BME280;1095;50.992;6.798;2023-02-02T02:54:17;101390.75;;;6.87;100.00
2178;BME280;1095;50.992;6.798;2023-02-02T02:56:55;101388.72;;;6.80;100.00
2178;BME280;1095;50.992;6.798;2023-02-02T02:59:34;101393.09;;;6.79;100.00
2178;BME280;1095;50.992;6.798;2023-02-02T03:02:09;101403.84;;;6.75;100.00
2178;BME280;1095;50.992;6.798;2023-02-02T03:04:49;101396.97;;;6.74;100.00
2178;BME280;1095;50.992;6.798;2023-02-02T03:07:24;101403.13;;;6.73;100.00
2178;BME280;1095;50.992;6.798;2023-02-02T03:09:53;101406.44;;;6.75;100.00
2178;BME280;1095;50.992;6.798;2023-02-02T03:12:22;101409.47;;;6.69;100.00
2178;BME280;1095;50.992;6.798;2023-02-02T03:14:49;101410.41;;;6.68;100.00
2178;BME280;1095;50.992;6.798;2023-02-02T03:17:15;101397.19;;;6.59;100.00
2178;BME280;1095;50.992;6.798;2023-02-02T03:19:43;101410.75;;;6.63;100.00
2178;BME280;1095;50.992;6.798;2023-02-02T03:22:10;101413.13;;;6.66;100.00
2178;BME280;1095;50.992;6.798;2023-02-02T03:24:36;101410.66;;;6.64;100.00
2178;BME280;1095;50.992;6.798;2023-02-02T03:27:03;101411.00;;;6.60;100.00
2178;BME280;1095;50.992;6.798;2023-02-02T03:29:30;101414.19;;;6.63;100.00
2178;BME280;1095;50.992;6.798;2023-02-02T03:31:56;101404.03;;;6.60;100.00
2178;BME280;1095;50.992;6.798;2023-02-02T03:34:23;101414.78;;;6.67;100.00
2178;BME280;1095;50.992;6.798;2023-02-02T03:36:51;101416.91;;;6.62;100.00
2178;BME280;1095;50.992;6.798;2023-02-02T03:39:18;101424.69;;;6.62;100.00
2178;BME280;1095;50.992;6.798;2023-02-02T03:41:44;101412.31;;;6.65;100.00
2178;BME280;1095;50.992;6.798;2023-02-02T03:44:11;101415.00;;;6.64;100.00
2178;BME280;1095;50.992;6.798;2023-02-02T03:46:37;101423.53;;;6.66;100.00
2178;BME280;1095;50.992;6.798;2023-02-02T03:49:04;101417.88;;;6.61;100.00
2178;BME280;1095;50.992;6.798;2023-02-02T03:51:31;101419.16;;;6.66;100.00
2178;BME280;1095;50.992;6.798;2023-02-02T03:53:59;101416.44;;;6.68;100.00
2178;BME280;1095;50.992;6.798;2023-02-02T03:56:25;101410.66;;;6.64;100.00
2178;BME280;1095;50.992;6.798;2023-02-02T03:58:52;101418.56;;;6.63;100.00
2178;BME280;1095;50.992;6.798;2023-02-02T04:01:25;101424.00;;;6.60;100.00
2178;BME280;1095;50.992;6.798;2023-02-02T04:03:52;101414.53;;;6.59;100.00
2178;BME280;1095;50.992;6.798;2023-02-02T04:06:18;101424.94;;;6.59;100.00
2178;BME280;1095;50.992;6.798;2023-02-02T04:08:45;101427.53;;;6.59;100.00
2178;BME280;1095;50.992;6.798;2023-02-02T04:11:13;101428.50;;;6.58;100.00
2178;BME280;1095;50.992;6.798;2023-02-02T04:13:40;101417.38;;;6.56;100.00
2178;BME280;1095;50.992;6.798;2023-02-02T04:16:07;101431.91;;;6.58;100.00
2178;BME280;1095;50.992;6.798;2023-02-02T04:18:34;101429.09;;;6.61;100.00
2178;BME280;1095;50.992;6.798;2023-02-02T04:21:04;101435.59;;;6.67;100.00
2178;BME280;1095;50.992;6.798;2023-02-02T04:23:31;101429.56;;;6.66;100.00
2178;BME280;1095;50.992;6.798;2023-02-02T04:25:58;101439.03;;;6.68;100.00
2178;BME280;1095;50.992;6.798;2023-02-02T04:28:26;101442.91;;;6.62;100.00
2178;BME280;1095;50.992;6.798;2023-02-02T04:30:54;101435.34;;;6.59;100.00
2178;BME280;1095;50.992;6.798;2023-02-02T04:33:22;101433.19;;;6.53;100.00
2178;BME280;1095;50.992;6.798;2023-02-02T04:35:49;101449.94;;;6.49;100.00
2178;BME280;1095;50.992;6.798;2023-02-02T04:38:18;101442.59;;;6.43;100.00
2178;BME280;1095;50.992;6.798;2023-02-02T04:40:46;101448.22;;;6.37;100.00
2178;BME280;1095;50.992;6.798;2023-02-02T04:43:13;101445.91;;;6.45;100.00
2178;BME280;1095;50.992;6.798;2023-02-02T04:45:41;101451.53;;;6.39;100.00
2178;BME280;1095;50.992;6.798;2023-02-02T04:48:09;101454.84;;;6.41;100.00
2178;BME280;1095;50.992;6.798;2023-02-02T04:50:37;101445.63;;;6.37;100.00
2178;BME280;1095;50.992;6.798;2023-02-02T04:53:04;101445.63;;;6.37;100.00
2178;BME280;1095;50.992;6.798;2023-02-02T04:55:35;101453.31;;;6.38;100.00
2178;BME280;1095;50.992;6.798;2023-02-02T04:58:01;101464.09;;;6.45;100.00
2178;BME280;1095;50.992;6.798;2023-02-02T05:00:28;101460.88;;;6.41;100.00
2178;BME280;1095;50.992;6.798;2023-02-02T05:02:56;101463.38;;;6.43;100.00
2178;BME280;1095;50.992;6.798;2023-02-02T05:05:23;101455.06;;;6.38;100.00
2178;BME280;1095;50.992;6.798;2023-02-02T05:07:49;101472.13;;;6.42;100.00
2178;BME280;1095;50.992;6.798;2023-02-02T05:10:16;101451.44;;;6.40;100.00
2178;BME280;1095;50.992;6.798;2023-02-02T05:12:52;101463.16;;;6.46;100.00
2178;BME280;1095;50.992;6.798;2023-02-02T05:15:19;101463.69;;;6.38;100.00
2178;BME280;1095;50.992;6.798;2023-02-02T05:17:46;101475.22;;;6.47;100.00
2178;BME280;1095;50.992;6.798;2023-02-02T05:20:15;101476.38;;;6.43;100.00
2178;BME280;1095;50.992;6.798;2023-02-02T05:22:41;101471.78;;;6.46;100.00
2178;BME280;1095;50.992;6.798;2023-02-02T05:25:08;101477.00;;;6.46;100.00
2178;BME280;1095;50.992;6.798;2023-02-02T05:27:35;101477.22;;;6.43;100.00
2178;BME280;1095;50.992;6.798;2023-02-02T05:30:02;101476.28;;;6.44;100.00
2178;BME280;1095;50.992;6.798;2023-02-02T05:32:29;101464.63;;;6.37;100.00
2178;BME280;1095;50.992;6.798;2023-02-02T05:34:56;101459.53;;;6.36;100.00
2178;BME280;1095;50.992;6.798;2023-02-02T05:37:24;101448.22;;;6.37;100.00
2178;BME280;1095;50.992;6.798;2023-02-02T05:39:50;101451.75;;;6.36;100.00
2178;BME280;1095;50.992;6.798;2023-02-02T05:42:18;101452.41;;;6.26;100.00
2178;BME280;1095;50.992;6.798;2023-02-02T05:44:44;101445.75;;;6.22;100.00
2178;BME280;1095;50.992;6.798;2023-02-02T05:47:11;101456.47;;;6.18;100.00
2178;BME280;1095;50.992;6.798;2023-02-02T05:49:38;101446.91;;;6.18;100.00
2178;BME280;1095;50.992;6.798;2023-02-02T05:52:04;101454.28;;;6.24;100.00
2178;BME280;1095;50.992;6.798;2023-02-02T05:54:32;101454.06;;;6.27;100.00
2178;BME280;1095;50.992;6.798;2023-02-02T05:56:59;101445.53;;;6.25;100.00
2178;BME280;1095;50.992;6.798;2023-02-02T05:59:27;101444.72;;;6.25;100.00
2178;BME280;1095;50.992;6.798;2023-02-02T06:01:54;101447.41;;;6.23;100.00
2178;BME280;1095;50.992;6.798;2023-02-02T06:04:20;101449.28;;;6.21;100.00
2178;BME280;1095;50.992;6.798;2023-02-02T06:06:47;101460.63;;;6.20;100.00
2178;BME280;1095;50.992;6.798;2023-02-02T06:09:13;101452.09;;;6.18;100.00
2178;BME280;1095;50.992;6.798;2023-02-02T06:11:43;101470.69;;;6.25;100.00
2178;BME280;1095;50.992;6.798;2023-02-02T06:14:12;101475.78;;;6.26;100.00
2178;BME280;1095;50.992;6.798;2023-02-02T06:16:39;101482.66;;;6.27;100.00
2178;BME280;1095;50.992;6.798;2023-02-02T06:19:05;101470.88;;;6.35;100.00
2178;BME280;1095;50.992;6.798;2023-02-02T06:21:32;101482.22;;;6.33;100.00
2178;BME280;1095;50.992;6.798;2023-02-02T06:23:58;101488.13;;;6.36;100.00
2178;BME280;1095;50.992;6.798;2023-02-02T06:26:26;101484.50;;;6.38;100.00
2178;BME280;1095;50.992;6.798;2023-02-02T06:28:54;101480.03;;;6.40;100.00
2178;BME280;1095;50.992;6.798;2023-02-02T06:31:21;101494.78;;;6.40;100.00
2178;BME280;1095;50.992;6.798;2023-02-02T06:33:52;101498.94;;;6.42;100.00
2178;BME280;1095;50.992;6.798;2023-02-02T06:36:19;101506.22;;;6.50;100.00
2178;BME280;1095;50.992;6.798;2023-02-02T06:38:47;101506.63;;;6.44;100.00
2178;BME280;1095;50.992;6.798;2023-02-02T06:41:15;101490.81;;;6.47;100.00
2178;BME280;1095;50.992;6.798;2023-02-02T06:43:41;101502.28;;;6.44;100.00
2178;BME280;1095;50.992;6.798;2023-02-02T06:46:09;101515.59;;;6.40;100.00
2178;BME280;1095;50.992;6.798;2023-02-02T06:48:36;101501.03;;;6.37;100.00
2178;BME280;1095;50.992;6.798;2023-02-02T06:51:03;101498.53;;;6.36;100.00
2178;BME280;1095;50.992;6.798;2023-02-02T06:53:30;101507.91;;;6.38;100.00
2178;BME280;1095;50.992;6.798;2023-02-02T06:55:58;101505.09;;;6.41;100.00
2178;BME280;1095;50.992;6.798;2023-02-02T06:58:26;101515.38;;;6.43;100.00
2178;BME280;1095;50.992;6.798;2023-02-02T07:00:53;101493.84;;;6.41;100.00
2178;BME280;1095;50.992;6.798;2023-02-02T07:03:21;101505.91;;;6.42;100.00
2178;BME280;1095;50.992;6.798;2023-02-02T07:05:48;101503.31;;;6.42;100.00
2178;BME280;1095;50.992;6.798;2023-02-02T07:08:15;101514.75;;;6.39;100.00
2178;BME280;1095;50.992;6.798;2023-02-02T07:10:41;101517.25;;;6.41;100.00
2178;BME280;1095;50.992;6.798;2023-02-02T07:13:09;101511.44;;;6.37;100.00
2178;BME280;1095;50.992;6.798;2023-02-02T07:15:37;101509.44;;;6.41;100.00
2178;BME280;1095;50.992;6.798;2023-02-02T07:18:04;101523.91;;;6.45;100.00
2178;BME280;1095;50.992;6.798;2023-02-02T07:20:33;101518.69;;;6.45;100.00
2178;BME280;1095;50.992;6.798;2023-02-02T07:23:01;101528.25;;;6.44;100.00
2178;BME280;1095;50.992;6.798;2023-02-02T07:25:28;101521.41;;;6.43;100.00
2178;BME280;1095;50.992;6.798;2023-02-02T07:27:55;101530.75;;;6.46;100.00
2178;BME280;1095;50.992;6.798;2023-02-02T07:30:22;101530.75;;;6.46;100.00
2178;BME280;1095;50.992;6.798;2023-02-02T07:32:50;101524.84;;;6.44;100.00
2178;BME280;1095;50.992;6.798;2023-02-02T07:46:23;101548.84;;;6.47;100.00
2178;BME280;1095;50.992;6.798;2023-02-02T07:49:23;101507.50;;;6.31;100.00
2178;BME280;1095;50.992;6.798;2023-02-02T07:52:06;101551.13;;;6.52;100.00
2178;BME280;1095;50.992;6.798;2023-02-02T07:58:20;101551.44;;;6.47;100.00
2178;BME280;1095;50.992;6.798;2023-02-02T08:04:18;101522.16;;;6.20;100.00
2178;BME280;1095;50.992;6.798;2023-02-02T08:07:10;101547.00;;;6.37;100.00
2178;BME280;1095;50.992;6.798;2023-02-02T08:10:01;101516.75;;;6.23;100.00
2178;BME280;1095;50.992;6.798;2023-02-02T08:12:29;101526.31;;;6.22;100.00
2178;BME280;1095;50.992;6.798;2023-02-02T08:18:10;101536.69;;;6.35;100.00
2178;BME280;1095;50.992;6.798;2023-02-02T08:21:00;101564.25;;;6.38;100.00
2178;BME280;1095;50.992;6.798;2023-02-02T08:23:38;101552.91;;;6.39;100.00
2178;BME280;1095;50.992;6.798;2023-02-02T08:26:45;101570.50;;;6.35;100.00
2178;BME280;1095;50.992;6.798;2023-02-02T08:29:34;101577.97;;;6.40;100.00
2178;BME280;1095;50.992;6.798;2023-02-02T08:32:10;101578.81;;;6.40;100.00
2178;BME280;1095;50.992;6.798;2023-02-02T08:35:17;101567.38;;;6.43;100.00
2178;BME280;1095;50.992;6.798;2023-02-02T08:38:32;101559.25;;;6.35;100.00
2178;BME280;1095;50.992;6.798;2023-02-02T08:41:21;101559.47;;;6.44;100.00
2178;BME280;1095;50.992;6.798;2023-02-02T08:43:50;101561.34;;;6.42;100.00
2178;BME280;1095;50.992;6.798;2023-02-02T08:46:18;101551.16;;;6.39;100.00
2178;BME280;1095;50.992;6.798;2023-02-02T08:48:57;101579.63;;;6.53;100.00
2178;BME280;1095;50.992;6.798;2023-02-02T08:51:38;101568.59;;;6.50;100.00
2178;BME280;1095;50.992;6.798;2023-02-02T08:54:56;101591.47;;;6.57;100.00
2178;BME280;1095;50.992;6.798;2023-02-02T08:57:56;101584.16;;;6.62;100.00
2178;BME280;1095;50.992;6.798;2023-02-02T09:04:13;101583.84;;;6.67;100.00
2178;BME280;1095;50.992;6.798;2023-02-02T09:07:32;101556.53;;;6.49;100.00
2178;BME280;1095;50.992;6.798;2023-02-02T09:09:55;101588.72;;;6.72;100.00
2178;BME280;1095;50.992;6.798;2023-02-02T09:12:26;101591.44;;;6.70;100.00
2178;BME280;1095;50.992;6.798;2023-02-02T09:15:05;101592.16;;;6.72;100.00
2178;BME280;1095;50.992;6.798;2023-02-02T09:17:37;101589.50;;;6.61;100.00
2178;BME280;1095;50.992;6.798;2023-02-02T09:20:14;101586.19;;;6.59;100.00
2178;BME280;1095;50.992;6.798;2023-02-02T09:23:00;101611.59;;;6.79;100.00
2178;BME280;1095;50.992;6.798;2023-02-02T09:26:12;101582.63;;;6.60;100.00
2178;BME280;1095;50.992;6.798;2023-02-02T09:35:47;101632.19;;;6.82;100.00
2178;BME280;1095;50.992;6.798;2023-02-02T09:43:44;101622.16;;;6.40;100.00
2178;BME280;1095;50.992;6.798;2023-02-02T10:00:15;101652.63;;;6.25;100.00
2178;BME280;1095;50.992;6.798;2023-02-02T10:12:40;101675.09;;;6.39;100.00
2178;BME280;1095;50.992;6.798;2023-02-02T10:26:12;101709.41;;;6.69;100.00
2178;BME280;1095;50.992;6.798;2023-02-02T10:47:15;101745.41;;;7.01;100.00
2178;BME280;1095;50.992;6.798;2023-02-02T10:50:21;101695.56;;;6.81;100.00
2178;BME280;1095;50.992;6.798;2023-02-02T10:54:57;101721.34;;;7.10;100.00
2178;BME280;1095;50.992;6.798;2023-02-02T10:56:35;101720.34;;;6.99;100.00
2178;BME280;1095;50.992;6.798;2023-02-02T10:59:25;101732.47;;;7.12;100.00
2178;BME280;1095;50.992;6.798;2023-02-02T11:08:19;101724.13;;;7.19;100.00
2178;BME280;1095;50.992;6.798;2023-02-02T11:11:10;101724.34;;;7.16;100.00
2178;BME280;1095;50.992;6.798;2023-02-02T11:14:12;101734.94;;;7.26;100.00
2178;BME280;1095;50.992;6.798;2023-02-02T11:17:17;101710.78;;;7.24;100.00
2178;BME280;1095;50.992;6.798;2023-02-02T11:26:12;101737.41;;;7.40;100.00
2178;BME280;1095;50.992;6.798;2023-02-02T11:28:40;101688.53;;;7.20;100.00
2178;BME280;1095;50.992;6.798;2023-02-02T11:31:36;101729.91;;;7.48;100.00
2178;BME280;1095;50.992;6.798;2023-02-02T11:37:33;101727.34;;;7.59;100.00
2178;BME280;1095;50.992;6.798;2023-02-02T11:40:26;101713.84;;;7.54;100.00
2178;BME280;1095;50.992;6.798;2023-02-02T11:46:40;101730.44;;;7.64;100.00
2178;BME280;1095;50.992;6.798;2023-02-02T11:49:21;101704.84;;;7.58;100.00
2178;BME280;1095;50.992;6.798;2023-02-02T11:52:35;101705.09;;;7.55;100.00
2178;BME280;1095;50.992;6.798;2023-02-02T11:55:41;101733.72;;;7.79;100.00
2178;BME280;1095;50.992;6.798;2023-02-02T11:58:22;101728.91;;;7.86;100.00
2178;BME280;1095;50.992;6.798;2023-02-02T12:00:58;101716.59;;;7.88;100.00
2178;BME280;1095;50.992;6.798;2023-02-02T12:03:28;101707.91;;;7.76;100.00
2178;BME280;1095;50.992;6.798;2023-02-02T12:05:56;101727.25;;;7.85;100.00
2178;BME280;1095;50.992;6.798;2023-02-02T12:08:22;101734.13;;;7.86;100.00
2178;BME280;1095;50.992;6.798;2023-02-02T12:11:01;101727.03;;;7.88;100.00
2178;BME280;1095;50.992;6.798;2023-02-02T12:13:42;101705.13;;;7.90;100.00
2178;BME280;1095;50.992;6.798;2023-02-02T12:16:38;101709.88;;;7.96;100.00
2178;BME280;1095;50.992;6.798;2023-02-02T12:19:26;101711.66;;;7.96;100.00
2178;BME280;1095;50.992;6.798;2023-02-02T12:22:09;101719.25;;;7.99;100.00
2178;BME280;1095;50.992;6.798;2023-02-02T12:24:47;101711.56;;;8.09;99.85
2178;BME280;1095;50.992;6.798;2023-02-02T12:27:27;101722.72;;;8.11;99.71
2178;BME280;1095;50.992;6.798;2023-02-02T12:33:09;101723.94;;;8.18;99.07
2178;BME280;1095;50.992;6.798;2023-02-02T12:35:57;101700.78;;;8.13;98.68
2178;BME280;1095;50.992;6.798;2023-02-02T12:38:40;101709.94;;;8.19;98.61
2178;BME280;1095;50.992;6.798;2023-02-02T12:44:11;101714.59;;;8.26;98.29
2178;BME280;1095;50.992;6.798;2023-02-02T12:46:56;101720.75;;;8.25;98.13
2178;BME280;1095;50.992;6.798;2023-02-02T12:49:53;101711.22;;;8.13;97.52
2178;BME280;1095;50.992;6.798;2023-02-02T12:52:36;101710.41;;;8.13;97.78
2178;BME280;1095;50.992;6.798;2023-02-02T12:55:16;101714.44;;;8.17;97.48
2178;BME280;1095;50.992;6.798;2023-02-02T12:57:54;101706.38;;;8.20;97.75
2178;BME280;1095;50.992;6.798;2023-02-02T13:00:37;101708.66;;;8.24;97.28
2178;BME280;1095;50.992;6.798;2023-02-02T13:03:20;101697.16;;;8.27;96.90
2178;BME280;1095;50.992;6.798;2023-02-02T13:06:01;101704.88;;;8.28;96.78
2178;BME280;1095;50.992;6.798;2023-02-02T13:08:35;101705.88;;;8.39;97.12
2178;BME280;1095;50.992;6.798;2023-02-02T13:11:08;101711.31;;;8.36;96.29
2178;BME280;1095;50.992;6.798;2023-02-02T13:13:55;101703.53;;;8.47;96.35
2178;BME280;1095;50.992;6.798;2023-02-02T13:16:25;101714.91;;;8.46;95.90
2178;BME280;1095;50.992;6.798;2023-02-02T13:18:56;101706.50;;;8.42;96.06
2178;BME280;1095;50.992;6.798;2023-02-02T13:21:27;101712.41;;;8.44;96.11
2178;BME280;1095;50.992;6.798;2023-02-02T13:23:58;101703.75;;;8.44;96.17
2178;BME280;1095;50.992;6.798;2023-02-02T13:26:27;101720.97;;;8.46;96.00
2178;BME280;1095;50.992;6.798;2023-02-02T13:29:00;101717.53;;;8.46;95.92
2178;BME280;1095;50.992;6.798;2023-02-02T13:31:34;101716.19;;;8.51;95.81
2178;BME280;1095;50.992;6.798;2023-02-02T13:34:13;101714.56;;;8.50;95.79
2178;BME280;1095;50.992;6.798;2023-02-02T13:36:45;101724.28;;;8.59;95.53
2178;BME280;1095;50.992;6.798;2023-02-02T13:39:18;101712.06;;;8.49;95.69
2178;BME280;1095;50.992;6.798;2023-02-02T13:41:48;101714.31;;;8.53;95.81
2178;BME280;1095;50.992;6.798;2023-02-02T13:44:20;101715.38;;;8.51;95.62
2178;BME280;1095;50.992;6.798;2023-02-02T13:46:53;101712.31;;;8.46;95.29
2178;BME280;1095;50.992;6.798;2023-02-02T13:49:25;101710.16;;;8.40;95.40
2178;BME280;1095;50.992;6.798;2023-02-02T13:52:23;101713.09;;;8.35;95.81
2178;BME280;1095;50.992;6.798;2023-02-02T13:55:31;101723.72;;;8.32;96.03
2178;BME280;1095;50.992;6.798;2023-02-02T14:00:59;101725.50;;;8.31;96.30
2178;BME280;1095;50.992;6.798;2023-02-02T14:03:34;101720.09;;;8.35;96.08
2178;BME280;1095;50.992;6.798;2023-02-02T14:06:09;101721.75;;;8.36;95.98
2178;BME280;1095;50.992;6.798;2023-02-02T14:08:43;101718.22;;;8.37;95.73
2178;BME280;1095;50.992;6.798;2023-02-02T14:11:17;101726.28;;;8.45;95.77
2178;BME280;1095;50.992;6.798;2023-02-02T14:13:47;101717.75;;;8.43;95.74
2178;BME280;1095;50.992;6.798;2023-02-02T14:16:47;101722.84;;;8.44;95.74
2178;BME280;1095;50.992;6.798;2023-02-02T14:19:20;101724.16;;;8.50;95.37
2178;BME280;1095;50.992;6.798;2023-02-02T14:22:16;101713.03;;;8.48;95.29
2178;BME280;1095;50.992;6.798;2023-02-02T14:24:46;101718.13;;;8.49;95.07
2178;BME280;1095;50.992;6.798;2023-02-02T14:30:31;101714.06;;;8.56;94.40
2178;BME280;1095;50.992;6.798;2023-02-02T14:33:18;101720.13;;;8.57;94.61
2178;BME280;1095;50.992;6.798;2023-02-02T14:36:03;101721.06;;;8.56;94.70
2178;BME280;1095;50.992;6.798;2023-02-02T14:39:02;101713.84;;;8.59;94.62
2178;BME280;1095;50.992;6.798;2023-02-02T14:41:40;101710.16;;;8.62;93.92
2178;BME280;1095;50.992;6.798;2023-02-02T14:44:27;101723.94;;;8.64;94.21
2178;BME280;1095;50.992;6.798;2023-02-02T14:46:55;101725.94;;;8.60;93.89
2178;BME280;1095;50.992;6.798;2023-02-02T14:49:24;101724.41;;;8.58;93.95
2178;BME280;1095;50.992;6.798;2023-02-02T14:51:58;101721.66;;;8.59;93.79
2178;BME280;1095;50.992;6.798;2023-02-02T14:54:32;101728.44;;;8.62;94.28
2178;BME280;1095;50.992;6.798;2023-02-02T14:57:02;101736.38;;;8.60;94.18
2178;BME280;1095;50.992;6.798;2023-02-02T14:59:33;101739.09;;;8.59;94.35
2178;BME280;1095;50.992;6.798;2023-02-02T15:02:11;101741.72;;;8.59;94.39
2178;BME280;1095;50.992;6.798;2023-02-02T15:04:40;101745.88;;;8.61;94.07
2178;BME280;1095;50.992;6.798;2023-02-02T15:07:37;101752.97;;;8.59;94.26
2178;BME280;1095;50.992;6.798;2023-02-02T15:13:20;101751.19;;;8.60;94.03
2178;BME280;1095;50.992;6.798;2023-02-02T15:15:48;101747.66;;;8.61;94.09
2178;BME280;1095;50.992;6.798;2023-02-02T15:18:24;101745.75;;;8.63;93.82
2178;BME280;1095;50.992;6.798;2023-02-02T15:20:55;101749.31;;;8.62;93.96
2178;BME280;1095;50.992;6.798;2023-02-02T15:23:29;101758.31;;;8.58;93.71
2178;BME280;1095;50.992;6.798;2023-02-02T15:26:01;101757.13;;;8.62;93.43
2178;BME280;1095;50.992;6.798;2023-02-02T15:28:36;101759.16;;;8.58;93.42
2178;BME280;1095;50.992;6.798;2023-02-02T15:31:07;101759.97;;;8.59;93.43
2178;BME280;1095;50.992;6.798;2023-02-02T15:33:42;101754.97;;;8.56;93.18
2178;BME280;1095;50.992;6.798;2023-02-02T15:36:13;101765.41;;;8.56;92.94
2178;BME280;1095;50.992;6.798;2023-02-02T15:38:44;101770.63;;;8.56;93.02
2178;BME280;1095;50.992;6.798;2023-02-02T15:41:18;101763.53;;;8.58;92.70
2178;BME280;1095;50.992;6.798;2023-02-02T15:43:45;101766.97;;;8.58;93.08
2178;BME280;1095;50.992;6.798;2023-02-02T15:46:14;101768.13;;;8.54;92.56
2178;BME280;1095;50.992;6.798;2023-02-02T15:49:21;101763.63;;;8.56;92.55
2178;BME280;1095;50.992;6.798;2023-02-02T15:51:54;101765.75;;;8.51;92.54
2178;BME280;1095;50.992;6.798;2023-02-02T15:54:25;101765.66;;;8.53;92.52
2178;BME280;1095;50.992;6.798;2023-02-02T15:56:52;101775.84;;;8.56;92.67
2178;BME280;1095;50.992;6.798;2023-02-02T15:59:21;101775.84;;;8.56;92.72
2178;BME280;1095;50.992;6.798;2023-02-02T16:02:02;101776.09;;;8.53;93.16
2178;BME280;1095;50.992;6.798;2023-02-02T16:04:33;101781.56;;;8.50;93.00
2178;BME280;1095;50.992;6.798;2023-02-02T16:07:02;101784.28;;;8.48;93.11
2178;BME280;1095;50.992;6.798;2023-02-02T16:09:33;101791.00;;;8.51;92.96
2178;BME280;1095;50.992;6.798;2023-02-02T16:12:02;101796.00;;;8.54;92.95
2178;BME280;1095;50.992;6.798;2023-02-02T16:14:31;101797.31;;;8.48;93.03
2178;BME280;1095;50.992;6.798;2023-02-02T16:17:09;101791.50;;;8.45;93.48
2178;BME280;1095;50.992;6.798;2023-02-02T16:19:38;101793.16;;;8.46;93.21
2178;BME280;1095;50.992;6.798;2023-02-02T16:22:10;101796.50;;;8.48;93.29
2178;BME280;1095;50.992;6.798;2023-02-02T16:24:46;101805.38;;;8.45;93.09
2178;BME280;1095;50.992;6.798;2023-02-02T16:27:17;101807.25;;;8.43;93.15
2178;BME280;1095;50.992;6.798;2023-02-02T16:29:45;101801.00;;;8.46;93.05
2178;BME280;1095;50.992;6.798;2023-02-02T16:32:26;101809.44;;;8.49;93.16
2178;BME280;1095;50.992;6.798;2023-02-02T16:34:54;101799.09;;;8.48;92.91
2178;BME280;1095;50.992;6.798;2023-02-02T16:37:23;101805.38;;;8.45;92.92
2178;BME280;1095;50.992;6.798;2023-02-02T16:39:53;101808.81;;;8.46;92.88
2178;BME280;1095;50.992;6.798;2023-02-02T16:42:27;101825.19;;;8.48;93.02
2178;BME280;1095;50.992;6.798;2023-02-02T16:44:55;101804.31;;;8.48;93.08
2178;BME280;1095;50.992;6.798;2023-02-02T16:47:34;101812.25;;;8.46;93.02